Time;durP1;ratioP1;P1;durP2;ratioP2;P2;SDS_P1;SDS_P2;PMS_P1;PMS_P2;Temp;Humidity;BMP_temperature;BMP_pressure;BME280_temperature;BME280_humidity;BME280_pressure;Samples;Min_cycle;Max_cycle;Signal;HPM_P1;HPM_P2
2020/12/11 13:41:00;;;;;;;24.67;14.07;;;;;;;3.13;83.86;100417.47;1887660;74;21100;-62
2020/12/11 13:43:27;;;;;;;21.62;12.47;;;;;;;3.10;83.89;100419.56;1866557;74;21162;-62
2020/12/11 13:45:55;;;;;;;24.70;13.35;;;;;;;3.09;83.81;100419.11;1897898;74;21528;-62
2020/12/11 13:48:26;;;;;;;24.72;14.20;;;;;;;3.06;83.82;100415.19;1918507;74;21100;-62
2020/12/11 13:50:54;;;;;;;25.35;13.13;;;;;;;3.07;83.77;100421.25;1916177;74;21113;-62
2020/12/11 13:53:22;;;;;;;21.85;12.40;;;;;;;3.05;83.83;100417.33;1919194;74;21057;-62
2020/12/11 13:55:49;;;;;;;26.27;13.65;;;;;;;3.00;84.00;100415.06;1913637;74;21085;-63
2020/12/11 13:58:17;;;;;;;26.33;13.72;;;;;;;3.00;84.07;100423.27;1921857;74;21565;-62
2020/12/11 14:00:45;;;;;;;25.82;13.85;;;;;;;2.98;84.00;100420.66;1911774;74;21118;-63
2020/12/11 14:03:13;;;;;;;29.15;15.60;;;;;;;3.01;83.93;100429.82;1851653;74;21564;-63
2020/12/11 14:05:40;;;;;;;23.40;13.18;;;;;;;3.01;83.92;100432.42;1922100;74;21064;-63
2020/12/11 14:08:08;;;;;;;24.85;14.40;;;;;;;3.03;83.91;100428.53;1911542;74;21603;-63
2020/12/11 14:10:35;;;;;;;24.82;14.68;;;;;;;3.00;83.95;100420.67;1838129;76;21588;-63
2020/12/11 14:13:03;;;;;;;26.10;14.50;;;;;;;3.03;83.83;100411.22;1815756;78;21619;-63
2020/12/11 14:15:30;;;;;;;33.35;16.93;;;;;;;3.06;83.70;100411.28;1811917;78;21550;-63
2020/12/11 14:23:32;;;;;;;24.40;13.28;;;;;;;3.09;83.62;100394.41;1800744;77;22201;-63
2020/12/11 14:26:01;;;;;;;29.57;15.88;;;;;;;3.08;83.61;100399.19;1752146;80;21335;-63
2020/12/11 14:28:29;;;;;;;31.42;16.00;;;;;;;3.10;83.72;100387.05;1769571;80;21154;-63
2020/12/11 14:30:56;;;;;;;27.10;15.00;;;;;;;3.11;83.38;100387.95;1777492;80;21318;-64
2020/12/11 14:33:24;;;;;;;29.00;15.78;;;;;;;3.13;83.24;100383.66;1776700;80;21570;-65
2020/12/11 14:35:52;;;;;;;27.77;15.28;;;;;;;3.13;83.39;100380.61;1745965;81;21549;-65
2020/12/11 14:41:06;;;;;;;28.52;16.10;;;;;;;3.25;82.99;100373.88;1712637;82;21190;-64
2020/12/11 14:43:34;;;;;;;30.72;16.87;;;;;;;3.24;83.04;100382.13;1707610;83;21616;-64
2020/12/11 14:46:02;;;;;;;30.97;15.80;;;;;;;3.26;83.01;100379.54;1697471;83;21177;-64
2020/12/11 14:48:31;;;;;;;28.50;16.07;;;;;;;3.29;82.89;100380.03;1699749;83;21211;-64
2020/12/11 14:50:59;;;;;;;26.87;14.83;;;;;;;3.29;82.80;100377.44;1713864;83;21167;-65
2020/12/11 14:53:26;;;;;;;26.02;15.38;;;;;;;3.25;82.60;100372.17;1708262;83;21606;-64
2020/12/11 14:55:54;;;;;;;21.52;12.70;;;;;;;3.26;82.72;100376.53;1705829;83;21374;-63
2020/12/11 14:58:21;;;;;;;23.12;13.03;;;;;;;3.25;82.70;100382.58;1688403;83;21208;-63
2020/12/11 15:00:51;;;;;;;24.47;13.30;;;;;;;3.25;82.75;100400.80;1691952;83;21183;-63
2020/12/11 15:03:20;;;;;;;22.55;12.75;;;;;;;3.26;82.65;100393.84;1706833;82;21176;-63
2020/12/11 15:05:47;;;;;;;23.87;14.20;;;;;;;3.29;82.50;100390.00;1694190;83;21600;-63
2020/12/11 15:08:16;;;;;;;28.05;15.30;;;;;;;3.30;82.49;100392.20;1749480;81;21115;-63
2020/12/11 15:10:44;;;;;;;27.82;15.58;;;;;;;3.27;82.50;100388.69;1689874;83;22610;-63
2020/12/11 15:13:11;;;;;;;26.05;14.25;;;;;;;3.25;82.67;100388.19;1735836;81;21160;-64
2020/12/11 15:22:13;;;;;;;26.97;13.85;;;;;;;3.31;82.45;100364.03;1818486;77;22595;-62
2020/12/11 15:24:42;;;;;;;23.90;13.78;;;;;;;3.27;82.43;100368.28;1759092;81;21151;-62
2020/12/11 15:27:10;;;;;;;24.02;14.30;;;;;;;3.25;82.50;100364.78;1761820;81;21154;-62
2020/12/11 15:29:42;;;;;;;24.25;14.90;;;;;;;3.25;82.46;100356.98;1732416;81;21586;-63
2020/12/11 15:32:11;;;;;;;22.70;14.58;;;;;;;3.22;82.52;100357.81;1753229;81;21155;-64
2020/12/11 15:34:39;;;;;;;22.05;14.40;;;;;;;3.40;82.03;100356.35;1761805;81;21561;-64
2020/12/11 15:37:09;;;;;;;25.97;13.90;;;;;;;3.46;81.81;100359.06;1757905;81;21102;-64
2020/12/11 15:39:36;;;;;;;21.80;13.58;;;;;;;3.54;81.53;100357.88;1735740;81;21637;-64
2020/12/11 15:42:04;;;;;;;22.17;13.93;;;;;;;3.49;81.36;100356.95;1741073;80;21601;-64
2020/12/11 15:44:32;;;;;;;22.27;13.13;;;;;;;3.43;81.59;100348.59;1747640;80;21151;-64
2020/12/11 15:47:00;;;;;;;20.15;11.73;;;;;;;3.44;81.57;100344.29;1745620;81;21573;-64
2020/12/11 15:49:28;;;;;;;22.55;13.62;;;;;;;3.49;81.28;100347.84;1737527;81;21594;-63
2020/12/11 15:52:08;;;;;;;28.50;15.03;;;;;;;3.51;81.13;100348.30;1694217;82;21171;-64
2020/12/11 15:54:38;;;;;;;24.37;12.45;;;;;;;3.53;81.20;100346.60;1742837;82;21349;-64
2020/12/11 15:57:05;;;;;;;24.80;12.60;;;;;;;3.53;81.16;100347.91;1702063;84;21573;-64
2020/12/11 15:59:33;;;;;;;18.92;11.63;;;;;;;3.52;81.15;100353.10;1722744;82;21663;-64
2020/12/11 16:02:03;;;;;;;21.35;13.10;;;;;;;3.55;80.83;100350.11;1689629;84;21131;-64
2020/12/11 16:04:32;;;;;;;24.25;13.20;;;;;;;3.40;81.21;100350.73;1695627;82;21446;-65
2020/12/11 16:07:00;;;;;;;21.15;14.55;;;;;;;3.39;81.46;100349.40;1722658;82;21567;-64
2020/12/11 16:09:28;;;;;;;25.72;12.73;;;;;;;3.40;81.55;100360.26;1719758;82;21580;-64
2020/12/11 16:11:57;;;;;;;23.90;12.30;;;;;;;3.40;81.51;100362.45;1720182;82;21156;-63
2020/12/11 16:17:22;;;;;;;21.65;12.55;;;;;;;3.45;81.52;100348.64;1821028;77;22223;-62
2020/12/11 16:19:50;;;;;;;20.52;12.30;;;;;;;3.39;81.51;100346.39;1754938;80;21149;-62
2020/12/11 16:22:17;;;;;;;17.30;11.88;;;;;;;3.51;81.10;100346.14;1760218;80;21561;-63
2020/12/11 16:24:45;;;;;;;24.18;11.60;;;;;;;3.56;80.80;100341.86;1761462;80;21145;-63
2020/12/11 16:27:13;;;;;;;21.05;10.95;;;;;;;3.57;80.72;100351.42;1783847;80;21141;-63
2020/12/11 16:29:42;;;;;;;20.50;11.15;;;;;;;3.58;80.62;100344.06;1769611;80;21150;-63
2020/12/11 16:32:10;;;;;;;20.30;11.38;;;;;;;3.59;80.51;100348.86;1742679;81;21581;-64
2020/12/11 16:34:38;;;;;;;20.92;10.63;;;;;;;3.59;80.47;100354.92;1761869;81;21529;-63
2020/12/11 16:37:06;;;;;;;21.00;11.18;;;;;;;3.61;80.44;100353.66;1757196;81;21182;-64
2020/12/11 16:39:35;;;;;;;20.65;12.07;;;;;;;3.61;80.50;100349.77;1763314;81;21146;-64
2020/12/11 16:42:03;;;;;;;20.35;12.07;;;;;;;3.62;80.40;100338.50;1760227;81;21158;-64
2020/12/11 16:44:44;;;;;;;23.12;11.60;;;;;;;3.64;80.27;100328.98;1761067;81;21167;-64
2020/12/11 16:47:10;;;;;;;23.55;12.00;;;;;;;3.63;80.27;100326.80;1757463;81;21111;-64
2020/12/11 16:49:40;;;;;;;18.03;9.33;;;;;;;3.64;80.20;100329.84;1730321;81;21601;-63
2020/12/11 16:52:12;;;;;;;17.62;10.95;;;;;;;3.62;80.21;100331.98;1747410;81;21131;-64
2020/12/11 16:54:41;;;;;;;18.50;11.12;;;;;;;3.62;80.24;100332.84;1725619;81;21303;-64
2020/12/11 16:57:09;;;;;;;23.07;13.15;;;;;;;3.63;80.29;100319.42;1734247;81;21574;-64
2020/12/11 17:02:41;;;;;;;21.87;10.93;;;;;;;3.66;80.16;100321.64;1805577;77;22588;-62
2020/12/11 17:05:16;;;;;;;16.73;9.90;;;;;;;3.66;80.25;100323.38;1747488;81;21573;-63
2020/12/11 17:10:10;;;;;;;21.97;11.33;;;;;;;3.72;80.11;100320.43;1808318;77;22186;-62
2020/12/11 17:12:38;;;;;;;20.15;11.03;;;;;;;3.71;80.10;100328.23;1790835;80;21157;-62
2020/12/11 17:15:08;;;;;;;18.92;9.80;;;;;;;3.64;80.22;100324.64;1742995;80;21628;-63
2020/12/11 17:17:37;;;;;;;;;;;;;;;3.62;80.31;100321.58;1749800;80;21594;-64
2020/12/11 17:20:05;;;;;;;19.92;10.35;;;;;;;3.66;80.18;100317.73;1752573;80;20181;-65
2020/12/11 17:22:33;;;;;;;21.00;11.28;;;;;;;3.69;80.03;100320.38;1745152;80;21125;-64
2020/12/11 17:25:05;;;;;;;17.32;10.90;;;;;;;3.68;79.98;100314.73;1747929;80;21139;-63
2020/12/11 17:27:37;;;;;;;17.32;10.58;;;;;;;3.67;79.90;100319.48;1767006;80;21285;-63
2020/12/11 17:35:22;;;;;;;18.52;11.30;;;;;;;3.69;79.67;100308.67;1761467;80;21110;-63
2020/12/11 17:37:50;;;;;;;22.98;10.68;;;;;;;3.69;79.69;100302.60;1756596;80;21141;-63
2020/12/11 17:40:17;;;;;;;17.57;10.90;;;;;;;3.75;79.49;100297.48;1756536;80;21593;-63
2020/12/11 17:42:47;;;;;;;18.23;11.28;;;;;;;3.72;79.48;100290.49;1739518;80;21177;-63
2020/12/11 17:45:22;;;;;;;18.48;11.00;;;;;;;3.79;79.34;100291.88;1818681;77;22187;-62
2020/12/11 17:47:50;;;;;;;18.35;10.98;;;;;;;3.74;79.34;100290.53;1762812;80;21144;-62
2020/12/11 17:50:20;;;;;;;19.65;11.53;;;;;;;3.74;79.31;100282.72;1719300;83;21715;-63
2020/12/11 17:52:48;;;;;;;19.25;10.78;;;;;;;3.75;79.23;100285.77;1705329;84;21143;-64
2020/12/11 17:55:16;;;;;;;19.35;11.22;;;;;;;3.74;79.33;100280.12;1716959;83;21189;-64
2020/12/11 17:57:48;;;;;;;18.70;11.03;;;;;;;3.82;79.12;100290.63;1695555;84;21317;-64
2020/12/11 18:00:16;;;;;;;16.57;10.25;;;;;;;3.84;78.93;100288.92;1706402;83;21612;-63
2020/12/11 18:02:45;;;;;;;23.38;10.63;;;;;;;3.84;78.88;100291.52;1724598;83;21126;-63
2020/12/11 18:05:17;;;;;;;16.05;10.35;;;;;;;3.82;78.92;100294.53;1719613;83;21153;-64
2020/12/11 18:07:47;;;;;;;18.75;11.00;;;;;;;3.81;78.87;100296.69;1719519;83;21542;-64
2020/12/11 18:10:16;;;;;;;19.82;10.75;;;;;;;3.81;78.84;100290.18;1698814;84;21174;-64
2020/12/11 18:12:44;;;;;;;20.75;12.40;;;;;;;3.78;78.86;100287.53;1713906;83;21142;-63
2020/12/11 18:15:12;;;;;;;19.07;11.43;;;;;;;3.81;78.70;100293.64;1708316;83;21598;-64
2020/12/11 18:17:40;;;;;;;17.95;10.98;;;;;;;3.85;78.55;100284.16;1704375;83;21573;-64
2020/12/11 18:20:11;;;;;;;18.92;10.95;;;;;;;3.80;78.61;100282.78;1696332;83;21741;-64
2020/12/11 18:22:48;;;;;;;17.45;10.72;;;;;;;3.82;78.56;100282.38;1712830;83;21155;-64
2020/12/11 18:25:18;;;;;;;17.05;11.05;;;;;;;3.84;78.49;100288.92;1706324;83;21151;-64
2020/12/11 18:27:49;;;;;;;22.40;11.55;;;;;;;3.77;78.80;100288.38;1698037;83;21589;-64
2020/12/11 18:30:18;;;;;;;20.25;11.12;;;;;;;3.75;78.94;100292.28;1687587;83;21142;-64
2020/12/11 18:32:47;;;;;;;21.97;11.38;;;;;;;3.83;78.63;100290.63;1712263;83;21143;-64
2020/12/11 18:35:15;;;;;;;22.37;11.55;;;;;;;3.82;78.61;100290.19;1698797;83;21618;-64
2020/12/11 18:37:48;;;;;;;21.70;12.10;;;;;;;3.88;78.35;100288.11;1706444;83;21162;-64
2020/12/11 18:40:16;;;;;;;24.32;11.75;;;;;;;3.86;78.28;100277.66;1702365;83;21308;-63
2020/12/11 18:42:48;;;;;;;19.20;12.13;;;;;;;3.86;78.25;100275.05;1719509;83;21621;-64
2020/12/11 18:45:17;;;;;;;22.07;11.95;;;;;;;3.87;78.17;100273.34;1702562;83;21578;-64
2020/12/11 18:47:46;;;;;;;18.15;11.38;;;;;;;3.91;77.88;100264.72;1684589;84;21295;-64
2020/12/11 18:50:16;;;;;;;19.73;11.03;;;;;;;3.83;78.15;100266.34;1744823;82;21175;-64
2020/12/11 18:52:46;;;;;;;15.88;10.78;;;;;;;3.84;78.11;100267.65;1742352;81;21563;-64
2020/12/11 18:55:22;;;;;;;20.60;11.50;;;;;;;3.83;78.08;100259.83;1725531;82;21111;-63
2020/12/11 18:57:48;;;;;;;17.02;10.63;;;;;;;3.81;78.08;100266.75;1736475;81;21159;-64
2020/12/11 19:00:18;;;;;;;17.12;10.28;;;;;;;3.80;78.14;100268.91;1723326;82;21161;-63
2020/12/11 19:02:49;;;;;;;18.25;10.20;;;;;;;3.80;78.12;100265.00;1734862;82;21281;-64
2020/12/11 19:05:18;;;;;;;16.15;10.20;;;;;;;3.80;78.16;100255.88;1692962;84;21217;-64
2020/12/11 19:07:46;;;;;;;21.30;12.13;;;;;;;3.80;78.08;100263.25;1728235;82;21240;-64
2020/12/11 19:10:14;;;;;;;16.57;10.82;;;;;;;3.86;77.91;100254.67;1676511;84;21141;-64
2020/12/11 19:12:43;;;;;;;18.30;11.00;;;;;;;3.87;77.77;100260.33;1731878;82;21125;-64
2020/12/11 19:15:14;;;;;;;18.02;10.78;;;;;;;3.83;77.85;100258.53;1730311;82;21175;-64
2020/12/11 19:17:45;;;;;;;17.10;9.90;;;;;;;3.80;77.88;100265.00;1727995;82;21263;-64
2020/12/11 19:20:14;;;;;;;17.10;10.00;;;;;;;3.74;77.90;100259.30;1726241;82;21171;-64
2020/12/11 19:22:51;;;;;;;17.02;9.98;;;;;;;3.73;77.97;100256.23;1718278;82;21296;-64
2020/12/11 19:25:22;;;;;;;15.95;9.43;;;;;;;3.74;78.03;100245.38;1682780;85;21514;-64
2020/12/11 19:27:51;;;;;;;15.95;9.20;;;;;;;3.79;77.88;100251.53;1727998;82;21123;-64
2020/12/11 19:30:20;;;;;;;14.47;9.40;;;;;;;3.73;77.97;100240.62;1741639;82;21261;-64
2020/12/11 19:32:54;;;;;;;17.07;9.98;;;;;;;3.76;77.94;100250.19;1726148;82;21127;-64
2020/12/11 19:35:25;;;;;;;16.30;9.68;;;;;;;3.81;77.81;100243.31;1733069;82;21147;-64
2020/12/11 19:37:52;;;;;;;17.93;9.97;;;;;;;3.80;77.78;100251.53;1747025;82;21127;-64
2020/12/11 19:40:25;;;;;;;18.07;10.32;;;;;;;3.77;77.88;100237.61;1733505;82;21199;-64
2020/12/11 19:42:54;;;;;;;17.48;10.20;;;;;;;3.72;77.91;100241.47;1731737;82;21137;-64
2020/12/11 19:45:22;;;;;;;18.48;9.80;;;;;;;3.72;78.00;100242.77;1748886;81;21134;-64
2020/12/11 19:47:53;;;;;;;15.60;9.00;;;;;;;3.74;78.01;100242.78;1733634;81;21126;-64
2020/12/11 19:50:26;;;;;;;18.40;9.83;;;;;;;3.75;77.93;100239.33;1735092;80;21178;-64
2020/12/11 19:53:07;;;;;;;16.67;8.95;;;;;;;3.76;77.89;100234.56;1745816;81;21288;-64
2020/12/11 19:55:36;;;;;;;15.20;8.88;;;;;;;3.76;77.81;100231.52;1760035;81;21578;-64
2020/12/11 19:58:13;;;;;;;16.87;10.30;;;;;;;3.79;77.87;100238.07;1737620;81;21155;-64
2020/12/11 20:00:43;;;;;;;19.62;11.57;;;;;;;3.80;77.87;100233.75;1742755;81;21281;-64
2020/12/11 20:03:15;;;;;;;16.37;9.48;;;;;;;3.80;77.81;100235.05;1737758;81;21165;-64
2020/12/11 20:05:43;;;;;;;15.10;9.28;;;;;;;3.80;77.86;100231.15;1754901;81;21142;-64
2020/12/11 20:10:58;;;;;;;17.52;11.05;;;;;;;3.83;77.74;100224.23;1752474;80;21573;-64
2020/12/11 20:13:26;;;;;;;17.00;9.88;;;;;;;3.79;77.84;100219.84;1722205;82;21219;-64
2020/12/11 20:15:56;;;;;;;14.78;9.58;;;;;;;3.81;77.85;100212.07;1711080;83;21190;-64
2020/12/11 20:18:24;;;;;;;16.65;9.90;;;;;;;3.81;77.83;100205.56;1692914;83;21139;-64
2020/12/11 20:20:52;;;;;;;20.15;10.55;;;;;;;3.79;77.81;100202.06;1691914;84;21169;-64
2020/12/11 20:23:20;;;;;;;16.32;9.55;;;;;;;3.78;77.70;100195.97;1702229;84;21143;-64
2020/12/11 20:25:49;;;;;;;14.75;9.08;;;;;;;3.82;77.51;100191.69;1695460;84;21588;-64
2020/12/11 20:28:19;;;;;;;19.42;10.58;;;;;;;3.89;77.12;100193.93;1689864;84;21615;-64
2020/12/11 20:30:49;;;;;;;16.82;9.73;;;;;;;3.86;77.05;100195.64;1690431;83;21727;-64
2020/12/11 20:33:17;;;;;;;15.93;8.65;;;;;;;3.95;76.99;100196.20;1687551;84;21199;-64
2020/12/11 20:35:48;;;;;;;16.37;8.68;;;;;;;3.83;77.21;100196.05;1700349;84;21182;-63
2020/12/11 20:38:16;;;;;;;13.38;8.20;;;;;;;3.82;77.13;100199.50;1669495;84;21349;-64
2020/12/11 20:40:45;;;;;;;16.17;8.60;;;;;;;3.79;77.34;100200.77;1701750;84;21749;-64
2020/12/11 20:43:17;;;;;;;17.73;10.45;;;;;;;3.75;77.57;100193.35;1682738;84;21193;-64
2020/12/11 20:45:46;;;;;;;13.60;8.10;;;;;;;3.77;77.62;100197.27;1683051;83;21646;-63
2020/12/11 20:48:14;;;;;;;17.07;9.05;;;;;;;3.77;77.71;100193.36;1728847;80;21622;-63
2020/12/11 20:50:43;;;;;;;16.02;9.03;;;;;;;3.79;77.69;100190.34;1753072;80;21700;-63
2020/12/11 20:53:11;;;;;;;18.40;9.55;;;;;;;3.86;77.70;100186.97;1720812;82;21311;-64
2020/12/11 20:55:40;;;;;;;16.37;8.63;;;;;;;3.91;77.56;100188.31;1728513;82;21621;-64
2020/12/11 20:58:09;;;;;;;15.68;9.08;;;;;;;3.91;77.60;100185.30;1745823;82;21138;-64
2020/12/11 21:00:38;;;;;;;14.58;9.20;;;;;;;3.92;77.63;100188.34;1731319;82;21115;-64
2020/12/11 21:03:08;;;;;;;15.55;9.45;;;;;;;3.94;77.67;100184.44;1743494;82;21204;-64
2020/12/11 21:05:37;;;;;;;14.20;8.40;;;;;;;3.98;77.59;100187.53;1738156;82;21328;-64
2020/12/11 21:08:04;;;;;;;15.43;8.20;;;;;;;3.87;77.98;100182.20;1671793;85;21155;-63
2020/12/11 21:10:32;;;;;;;16.07;9.95;;;;;;;3.88;77.94;100182.66;1736745;82;21151;-64
2020/12/11 21:12:59;;;;;;;15.83;9.08;;;;;;;3.92;77.88;100184.86;1740379;81;21155;-57
2020/12/11 21:15:27;;;;;;;13.43;8.73;;;;;;;3.96;77.74;100182.73;1735473;82;21162;-58
2020/12/11 21:17:55;;;;;;;17.45;9.25;;;;;;;3.97;77.68;100181.88;1732210;82;21159;-57
2020/12/11 21:20:23;;;;;;;15.88;9.95;;;;;;;3.89;77.96;100186.12;1747745;82;21575;-57
2020/12/11 21:22:51;;;;;;;20.68;9.05;;;;;;;3.87;78.07;100177.86;1741305;82;21264;-57
2020/12/11 21:25:18;;;;;;;17.65;9.60;;;;;;;3.91;77.91;100176.19;1742810;82;21582;-58
2020/12/11 21:27:46;;;;;;;13.45;8.88;;;;;;;3.96;77.75;100172.31;1735888;82;21631;-57
2020/12/11 21:30:18;;;;;;;15.45;9.35;;;;;;;3.87;77.99;100168.74;1744592;82;21104;-57
2020/12/11 21:32:51;;;;;;;16.23;9.33;;;;;;;3.93;77.86;100165.77;1740821;81;21566;-57
2020/12/11 21:35:20;;;;;;;16.48;9.18;;;;;;;3.83;78.15;100167.41;1736416;81;21179;-57
2020/12/11 21:37:52;;;;;;;17.73;8.88;;;;;;;3.87;78.26;100161.38;1746604;81;21578;-57
2020/12/11 21:40:23;;;;;;;18.90;9.70;;;;;;;3.87;78.71;100158.33;1746817;82;21543;-58
2020/12/11 21:42:50;;;;;;;18.15;9.73;;;;;;;3.93;78.75;100157.95;1705944;84;21099;-57
2020/12/11 21:45:18;;;;;;;19.35;9.63;;;;;;;3.97;78.95;100150.62;1732657;82;21562;-58
2020/12/11 21:47:47;;;;;;;16.73;9.78;;;;;;;4.00;79.07;100148.06;1748821;82;21562;-57
2020/12/11 21:50:15;;;;;;;23.62;9.40;;;;;;;4.04;79.04;100138.53;1696333;82;21131;-57
2020/12/11 21:52:43;;;;;;;20.97;9.70;;;;;;;4.08;79.12;100139.02;1742098;82;21150;-62
2020/12/11 21:55:11;;;;;;;16.93;10.43;;;;;;;4.11;79.14;100143.84;1753265;81;21589;-63
2020/12/11 21:57:38;;;;;;;16.65;9.28;;;;;;;4.17;79.27;100143.02;1743615;82;21143;-57
2020/12/11 22:00:06;;;;;;;15.05;8.80;;;;;;;4.12;78.75;100144.30;1750771;82;21629;-58
2020/12/11 22:02:34;;;;;;;13.20;8.08;;;;;;;4.10;78.35;100145.11;1728239;82;21155;-58
2020/12/11 22:05:02;;;;;;;13.78;7.87;;;;;;;4.04;78.27;100148.95;1736527;82;21593;-58
2020/12/11 22:07:30;;;;;;;14.38;8.05;;;;;;;4.00;78.17;100141.55;1741127;82;21735;-57
2020/12/11 22:09:59;;;;;;;19.20;9.60;;;;;;;4.04;77.84;100138.13;1743439;81;21271;-57
2020/12/11 22:12:27;;;;;;;16.05;9.18;;;;;;;4.09;77.50;100138.16;1731873;82;21590;-58
2020/12/11 22:14:56;;;;;;;14.63;8.30;;;;;;;4.06;77.40;100136.41;1730211;82;21138;-57
2020/12/11 22:17:24;;;;;;;13.18;8.35;;;;;;;4.06;77.33;100129.00;1745749;82;21519;-57
2020/12/11 22:19:53;;;;;;;15.25;8.05;;;;;;;4.08;77.13;100136.41;1742832;82;21562;-57
2020/12/11 22:22:21;;;;;;;14.23;8.43;;;;;;;4.05;77.02;100129.45;1740882;82;21162;-58
2020/12/11 22:27:22;;;;;;;15.98;8.73;;;;;;;4.04;76.98;100118.59;1741289;82;21570;-58
2020/12/11 22:29:50;;;;;;;11.83;7.45;;;;;;;4.12;76.66;100129.08;1754637;82;21631;-57
2020/12/11 22:32:17;;;;;;;14.53;7.90;;;;;;;4.14;76.32;100120.84;1746705;82;21530;-58
2020/12/11 22:34:45;;;;;;;16.97;9.28;;;;;;;4.05;76.34;100127.26;1752860;82;21188;-57
2020/12/11 22:37:18;;;;;;;17.40;10.03;;;;;;;4.06;76.44;100126.40;1746944;82;21131;-57
2020/12/11 22:39:46;;;;;;;17.20;8.65;;;;;;;4.05;76.43;100120.34;1710763;83;21751;-58
2020/12/11 22:42:17;;;;;;;12.85;7.83;;;;;;;4.05;76.41;100113.83;1741730;82;21115;-58
2020/12/11 22:44:44;;;;;;;13.22;7.25;;;;;;;3.98;76.49;100112.87;1749398;81;21195;-57
2020/12/11 22:47:18;;;;;;;14.78;7.28;;;;;;;3.96;76.57;100116.33;1741784;82;21135;-57
2020/12/11 22:49:45;;;;;;;20.85;8.60;;;;;;;3.96;76.58;100118.52;1729045;82;21137;-63
2020/12/11 22:52:16;;;;;;;14.38;8.38;;;;;;;4.04;76.42;100111.19;1734012;82;21096;-64
2020/12/11 22:54:43;;;;;;;15.60;9.58;;;;;;;3.96;76.60;100118.52;1694264;84;21610;-63
2020/12/11 22:57:12;;;;;;;14.58;8.73;;;;;;;3.92;76.72;100121.05;1690780;84;21192;-63
2020/12/11 22:59:40;;;;;;;13.45;8.75;;;;;;;3.95;76.68;100118.08;1723953;82;21561;-63
2020/12/11 23:02:08;;;;;;;15.80;8.03;;;;;;;3.97;76.63;100121.98;1725680;82;21151;-63
2020/12/11 23:04:37;;;;;;;15.13;8.80;;;;;;;3.96;76.61;100112.42;1724456;82;21184;-63
2020/12/11 23:07:05;;;;;;;15.75;8.00;;;;;;;3.99;76.55;100105.95;1718361;82;21161;-57
2020/12/11 23:09:35;;;;;;;12.47;7.87;;;;;;;3.96;76.60;100101.59;1724957;82;21164;-62
2020/12/11 23:12:06;;;;;;;14.50;8.08;;;;;;;3.96;76.57;100101.59;1740521;82;21139;-63
2020/12/11 23:14:34;;;;;;;15.60;8.13;;;;;;;3.98;76.58;100105.50;1721316;82;21158;-64
2020/12/11 23:17:02;;;;;;;16.40;7.83;;;;;;;3.91;76.79;100111.50;1714009;82;21121;-63
2020/12/11 23:19:30;;;;;;;12.18;7.12;;;;;;;3.90;76.88;100111.05;1734690;82;21123;-63
2020/12/11 23:21:58;;;;;;;13.40;7.75;;;;;;;3.92;76.89;100104.13;1739368;82;21170;-63
2020/12/11 23:24:26;;;;;;;15.95;8.35;;;;;;;3.94;76.80;100103.30;1726991;82;21148;-63
2020/12/11 23:26:54;;;;;;;13.15;7.75;;;;;;;3.92;76.94;100103.72;1718343;82;21136;-63
2020/12/11 23:29:22;;;;;;;14.58;7.28;;;;;;;3.93;76.93;100100.25;1729458;82;21622;-64
2020/12/11 23:31:50;;;;;;;13.50;7.50;;;;;;;3.92;76.96;100093.30;1724444;82;21160;-63
2020/12/11 23:34:18;;;;;;;12.43;6.37;;;;;;;4.07;76.53;100094.29;1717822;82;21134;-63
2020/12/11 23:36:47;;;;;;;15.15;7.45;;;;;;;4.10;76.49;100088.70;1718658;82;21156;-63
2020/12/11 23:39:15;;;;;;;11.88;7.08;;;;;;;4.10;76.42;100088.70;1721877;81;21908;-63
2020/12/11 23:41:43;;;;;;;11.57;6.85;;;;;;;4.07;76.54;100089.08;1737361;82;21131;-63
2020/12/11 23:44:11;;;;;;;12.23;6.37;;;;;;;4.10;76.50;100086.51;1731695;82;21602;-63
2020/12/11 23:46:46;;;;;;;11.55;7.30;;;;;;;4.10;76.42;100091.72;1731800;82;21514;-63
2020/12/11 23:49:14;;;;;;;13.90;6.80;;;;;;;4.10;76.43;100096.52;1747419;82;21287;-63
2020/12/11 23:51:47;;;;;;;13.35;6.85;;;;;;;4.11;76.24;100095.66;1751089;81;21117;-57
2020/12/11 23:54:16;;;;;;;20.45;7.03;;;;;;;4.12;76.23;100095.21;1753058;82;21195;-57
2020/12/11 23:56:44;;;;;;;16.20;7.72;;;;;;;4.11;76.26;100093.05;1732966;82;21150;-57
2020/12/11 23:59:13;;;;;;;14.07;7.05;;;;;;;4.10;76.20;100096.92;1724897;82;21130;-57
